createdAt,value
2018-02-19T00:01:46.681Z,97.20
2018-02-19T00:04:14.296Z,97.20
2018-02-19T00:06:41.911Z,96.90
2018-02-19T00:09:10.268Z,96.90
2018-02-19T00:11:38.690Z,96.90
2018-02-19T00:14:07.087Z,96.80
2018-02-19T00:16:34.710Z,96.80
2018-02-19T00:19:02.324Z,96.80
2018-02-19T00:21:30.774Z,97.30
2018-02-19T00:23:58.406Z,97.30
2018-02-19T00:26:26.047Z,97.20
2018-02-19T00:28:54.442Z,97.70
2018-02-19T00:31:22.867Z,97.40
2018-02-19T00:33:50.533Z,97.40
2018-02-19T00:36:18.105Z,97.40
2018-02-19T00:38:45.731Z,97.40
2018-02-19T00:41:13.328Z,97.40
2018-02-19T00:43:41.735Z,97.50
2018-02-19T00:46:09.345Z,97.50
2018-02-19T00:48:37.119Z,97.40
2018-02-19T00:51:04.839Z,97.40
2018-02-19T00:53:32.438Z,97.30
2018-02-19T00:56:00.054Z,97.40
2018-02-19T00:58:27.703Z,97.40
2018-02-19T01:00:55.307Z,97.30
2018-02-19T01:03:22.952Z,97.10
2018-02-19T01:05:50.638Z,97.20
2018-02-19T01:08:18.405Z,97.00
2018-02-19T01:10:46.021Z,97.20
2018-02-19T01:13:13.755Z,97.30
2018-02-19T01:15:41.422Z,97.30
2018-02-19T01:18:09.034Z,97.30
2018-02-19T01:20:36.677Z,97.20
2018-02-19T01:23:04.349Z,97.20
2018-02-19T01:25:32.128Z,97.00
2018-02-19T01:27:59.745Z,97.00
2018-02-19T01:30:27.346Z,97.20
2018-02-19T01:32:54.950Z,97.60
2018-02-19T01:35:22.721Z,97.30
2018-02-19T01:37:50.352Z,97.40
2018-02-19T01:40:18.755Z,97.70
2018-02-19T01:42:47.144Z,97.70
2018-02-19T01:45:15.570Z,97.50
2018-02-19T01:47:43.177Z,97.50
2018-02-19T01:50:15.420Z,97.40
2018-02-19T01:52:43.042Z,97.50
2018-02-19T01:55:10.769Z,97.50
2018-02-19T01:57:38.421Z,97.40
2018-02-19T02:00:06.062Z,97.30
2018-02-19T02:02:33.678Z,97.20
2018-02-19T02:05:01.305Z,97.00
2018-02-19T02:07:28.911Z,97.10
2018-02-19T02:09:57.295Z,97.20
2018-02-19T02:12:25.700Z,97.00
2018-02-19T02:14:53.325Z,97.00
2018-02-19T02:17:20.993Z,96.90
2018-02-19T02:19:48.727Z,96.70
2018-02-19T02:22:16.358Z,96.80
2018-02-19T02:24:43.981Z,96.90
2018-02-19T02:27:11.621Z,97.10
2018-02-19T02:29:40.008Z,97.10
2018-02-19T02:32:08.414Z,97.40
2018-02-19T02:34:36.797Z,97.50
2018-02-19T02:37:05.242Z,97.60
2018-02-19T02:39:32.872Z,97.60
2018-02-19T02:42:01.270Z,97.60
2018-02-19T02:44:28.914Z,97.60
2018-02-19T02:46:56.547Z,97.60
2018-02-19T02:49:24.627Z,97.50
2018-02-19T02:51:52.268Z,97.30
2018-02-19T02:54:20.653Z,97.20
2018-02-19T02:56:49.055Z,97.40
2018-02-19T02:59:17.474Z,97.40
2018-02-19T03:01:45.252Z,97.50
2018-02-19T03:04:12.839Z,98.00
2018-02-19T03:06:40.470Z,97.60
2018-02-19T03:09:08.894Z,97.60
2018-02-19T03:11:36.511Z,97.60
2018-02-19T03:14:04.138Z,97.60
2018-02-19T03:16:31.761Z,97.30
2018-02-19T03:19:00.173Z,97.50
2018-02-19T03:21:28.521Z,97.40
2018-02-19T03:23:56.162Z,97.40
2018-02-19T03:26:23.776Z,97.50
2018-02-19T03:28:51.431Z,97.40
2018-02-19T03:31:19.040Z,97.30
2018-02-19T03:33:47.442Z,97.30
2018-02-19T03:36:15.862Z,97.20
2018-02-19T03:38:43.511Z,97.20
2018-02-19T03:41:11.138Z,97.30
2018-02-19T03:43:38.795Z,97.20
2018-02-19T03:46:06.421Z,97.30
2018-02-19T03:48:34.062Z,96.90
2018-02-19T03:51:01.682Z,96.80
2018-02-19T03:53:29.306Z,97.00
2018-02-19T03:55:56.924Z,97.00
2018-02-19T03:58:24.626Z,97.10
2018-02-19T04:00:52.249Z,97.20
2018-02-19T04:03:20.697Z,97.40
2018-02-19T04:05:48.354Z,97.30
2018-02-19T04:08:15.983Z,97.40
2018-02-19T04:10:43.611Z,97.60
2018-02-19T04:13:11.253Z,97.50
2018-02-19T04:15:39.693Z,97.20
2018-02-19T04:18:07.310Z,97.20
2018-02-19T04:20:35.705Z,97.80
2018-02-19T04:23:04.095Z,98.10
2018-02-19T04:25:32.504Z,98.20
2018-02-19T04:28:00.106Z,98.20
2018-02-19T04:30:27.741Z,98.10
2018-02-19T04:32:56.126Z,97.80
2018-02-19T04:35:24.526Z,97.80
2018-02-19T04:37:52.135Z,97.80
2018-02-19T04:40:19.814Z,97.80
2018-02-19T04:42:47.417Z,97.90
2018-02-19T04:45:18.716Z,97.80
2018-02-19T04:47:46.321Z,97.80
2018-02-19T04:50:13.981Z,97.80
2018-02-19T04:52:41.632Z,97.50
2018-02-19T04:55:09.274Z,97.90
2018-02-19T04:57:37.028Z,98.60
2018-02-19T05:00:04.671Z,98.00
2018-02-19T05:02:32.309Z,97.80
2018-02-19T05:05:00.708Z,97.50
2018-02-19T05:07:29.100Z,97.30
2018-02-19T05:09:57.534Z,97.20
2018-02-19T05:12:25.194Z,97.10
2018-02-19T05:14:52.829Z,97.30
2018-02-19T05:17:21.235Z,97.50
2018-02-19T05:19:49.624Z,97.50
2018-02-19T05:22:18.043Z,97.30
2018-02-19T05:24:45.710Z,97.30
2018-02-19T05:27:13.370Z,97.20
2018-02-19T05:29:41.749Z,97.40
2018-02-19T05:32:10.140Z,97.40
2018-02-19T05:34:38.542Z,97.50
2018-02-19T05:37:07.067Z,97.50
2018-02-19T05:39:34.679Z,97.50
2018-02-19T05:42:02.285Z,97.40
2018-02-19T05:44:30.679Z,97.30
2018-02-19T05:46:58.307Z,97.30
2018-02-19T05:49:25.982Z,97.30
2018-02-19T05:51:54.174Z,97.60
2018-02-19T05:54:21.806Z,97.00
2018-02-19T05:56:49.540Z,97.30
2018-02-19T05:59:17.946Z,97.00
2018-02-19T06:01:46.482Z,96.70
2018-02-19T06:04:14.180Z,96.70
2018-02-19T06:06:41.829Z,96.50
2018-02-19T06:09:09.486Z,96.30
2018-02-19T06:11:37.112Z,96.40
2018-02-19T06:14:04.706Z,96.30
2018-02-19T06:16:32.325Z,96.50
2018-02-19T06:19:00.042Z,96.50
2018-02-19T06:21:27.802Z,96.60
2018-02-19T06:23:56.925Z,96.40
2018-02-19T06:26:25.322Z,97.00
2018-02-19T06:28:52.935Z,96.60
2018-02-19T06:31:20.715Z,96.50
2018-02-19T06:33:48.346Z,96.60
2018-02-19T06:36:16.751Z,96.70
2018-02-19T06:38:45.152Z,96.60
2018-02-19T06:41:12.794Z,96.60
2018-02-19T06:43:41.189Z,96.70
2018-02-19T06:46:09.702Z,96.70
2018-02-19T06:48:38.078Z,96.50
2018-02-19T06:51:06.538Z,96.70
2018-02-19T06:53:34.174Z,96.70
2018-02-19T06:56:01.829Z,96.50
2018-02-19T06:58:30.227Z,96.80
2018-02-19T07:00:57.849Z,97.10
2018-02-19T07:03:25.474Z,96.60
2018-02-19T07:05:53.136Z,96.50
2018-02-19T07:08:20.783Z,96.50
2018-02-19T07:10:48.410Z,96.70
2018-02-19T07:13:16.207Z,96.70
2018-02-19T07:15:43.879Z,96.60
2018-02-19T07:18:11.534Z,96.50
2018-02-19T07:20:39.202Z,96.30
2018-02-19T07:23:06.861Z,96.60
2018-02-19T07:25:34.500Z,96.60
2018-02-19T07:28:02.903Z,95.70
2018-02-19T07:30:30.541Z,95.70
2018-02-19T07:32:58.169Z,95.70
2018-02-19T07:35:26.555Z,95.30
2018-02-19T07:37:55.705Z,95.00
2018-02-19T07:40:23.377Z,95.00
2018-02-19T07:42:51.050Z,95.00
2018-02-19T07:45:18.662Z,95.00
2018-02-19T07:47:47.067Z,95.30
2018-02-19T07:50:14.744Z,95.30
2018-02-19T07:52:45.902Z,95.80
2018-02-19T07:55:14.444Z,95.30
2018-02-19T07:57:42.085Z,95.30
2018-02-19T08:00:14.054Z,95.20
2018-02-19T08:02:42.493Z,95.00
2018-02-19T08:05:10.141Z,95.00
2018-02-19T08:07:37.770Z,96.00
2018-02-19T08:10:05.369Z,96.00
2018-02-19T08:12:33.847Z,94.10
2018-02-19T08:15:01.426Z,94.10
2018-02-19T08:17:29.823Z,94.10
2018-02-19T08:19:58.233Z,94.40
2018-02-19T08:22:25.858Z,94.00
2018-02-19T08:24:53.502Z,94.70
2018-02-19T08:27:21.176Z,94.50
2018-02-19T08:29:48.798Z,94.70
2018-02-19T08:32:17.920Z,93.60
2018-02-19T08:34:46.628Z,93.40
2018-02-19T08:37:14.268Z,93.40
2018-02-19T08:39:41.882Z,93.60
2018-02-19T08:42:09.510Z,93.30
2018-02-19T08:44:37.126Z,93.20
2018-02-19T08:47:04.734Z,93.20
2018-02-19T08:49:32.370Z,94.20
2018-02-19T08:52:00.003Z,93.30
2018-02-19T08:54:27.606Z,92.90
2018-02-19T08:56:55.992Z,92.90
2018-02-19T08:59:24.322Z,93.60
2018-02-19T09:01:51.973Z,93.60
2018-02-19T09:04:19.594Z,93.20
2018-02-19T09:06:47.279Z,93.60
2018-02-19T09:09:14.870Z,94.00
2018-02-19T09:11:43.279Z,92.50
2018-02-19T09:14:10.902Z,92.50
2018-02-19T09:16:38.547Z,91.90
2018-02-19T09:19:06.182Z,92.80
2018-02-19T09:21:34.613Z,91.70
2018-02-19T09:24:02.234Z,91.80
2018-02-19T09:26:29.868Z,91.30
2018-02-19T09:28:57.541Z,90.90
2018-02-19T09:31:25.290Z,91.40
2018-02-19T09:33:52.966Z,91.30
2018-02-19T09:36:20.598Z,91.60
2018-02-19T09:38:48.221Z,91.40
2018-02-19T09:41:15.910Z,91.30
2018-02-19T09:43:43.541Z,91.00
2018-02-19T09:46:11.924Z,91.60
2018-02-19T09:48:40.351Z,89.40
2018-02-19T09:51:07.961Z,89.40
2018-02-19T09:53:35.596Z,89.60
2018-02-19T09:56:03.249Z,89.60
2018-02-19T09:58:31.775Z,89.90
2018-02-19T10:00:59.417Z,89.90
2018-02-19T10:03:27.816Z,88.40
2018-02-19T10:05:55.463Z,88.40
2018-02-19T10:08:23.087Z,89.70
2018-02-19T10:10:50.714Z,89.80
2018-02-19T10:13:18.363Z,88.50
2018-02-19T10:15:46.012Z,87.80
2018-02-19T10:18:13.707Z,85.90
2018-02-19T10:20:41.338Z,86.60
2018-02-19T10:23:09.027Z,87.80
2018-02-19T10:25:36.673Z,87.30
2018-02-19T10:28:05.090Z,86.20
2018-02-19T10:30:32.781Z,86.20
2018-02-19T10:33:00.422Z,83.10
2018-02-19T10:35:28.765Z,78.30
2018-02-19T10:37:56.402Z,79.10
2018-02-19T10:40:24.043Z,78.70
2018-02-19T10:42:52.496Z,76.00
2018-02-19T10:45:20.180Z,76.00
2018-02-19T10:47:47.794Z,74.90
2018-02-19T10:50:16.279Z,78.80
2018-02-19T10:52:43.972Z,78.80
2018-02-19T10:55:11.571Z,80.30
2018-02-19T10:57:39.239Z,81.00
2018-02-19T11:00:06.886Z,81.40
2018-02-19T11:02:34.510Z,83.10
2018-02-19T11:05:02.175Z,85.00
2018-02-19T11:07:29.835Z,86.20
2018-02-19T11:09:57.447Z,85.10
2018-02-19T11:12:25.070Z,84.60
2018-02-19T11:14:52.709Z,84.10
2018-02-19T11:17:21.120Z,81.40
2018-02-19T11:19:48.746Z,81.30
2018-02-19T11:22:16.413Z,78.80
2018-02-19T11:24:44.070Z,82.60
2018-02-19T11:27:11.708Z,86.20
2018-02-19T11:29:40.138Z,85.50
2018-02-19T11:32:07.722Z,85.50
2018-02-19T11:34:35.361Z,85.40
2018-02-19T11:37:02.980Z,85.90
2018-02-19T11:39:30.749Z,86.60
2018-02-19T11:41:58.375Z,86.60
2018-02-19T11:44:26.799Z,83.50
2018-02-19T11:46:54.425Z,83.40
2018-02-19T11:49:22.818Z,81.20
2018-02-19T11:51:51.192Z,79.50
2018-02-19T11:54:18.823Z,79.50
2018-02-19T11:56:46.423Z,79.10
2018-02-19T11:59:14.093Z,82.80
2018-02-19T12:01:41.710Z,85.40
2018-02-19T12:04:10.239Z,82.40
2018-02-19T12:06:37.850Z,82.40
2018-02-19T12:09:05.525Z,81.00
2018-02-19T12:11:33.127Z,80.50
2018-02-19T12:14:00.779Z,79.90
2018-02-19T12:16:29.207Z,82.20
2018-02-19T12:18:56.842Z,82.20
2018-02-19T12:21:24.471Z,83.40
2018-02-19T12:23:52.078Z,86.30
2018-02-19T12:26:19.694Z,87.60
2018-02-19T12:28:47.307Z,85.30
2018-02-19T12:31:15.162Z,83.90
2018-02-19T12:33:42.835Z,83.00
2018-02-19T12:36:11.062Z,83.20
2018-02-19T12:38:38.703Z,85.50
2018-02-19T12:41:06.322Z,85.10
2018-02-19T12:43:34.696Z,85.00
2018-02-19T12:46:02.320Z,84.90
2018-02-19T12:48:29.927Z,84.50
2018-02-19T12:50:57.709Z,84.10
2018-02-19T12:53:25.339Z,84.00
2018-02-19T12:55:53.026Z,84.10
2018-02-19T12:58:20.666Z,83.70
2018-02-19T13:00:49.066Z,82.90
2018-02-19T13:03:18.334Z,81.60
2018-02-19T13:05:45.982Z,81.60
2018-02-19T13:08:13.609Z,82.10
2018-02-19T13:10:41.969Z,82.30
2018-02-19T13:13:09.623Z,81.60
2018-02-19T13:15:41.392Z,81.70
2018-02-19T13:20:42.895Z,82.40
2018-02-19T13:23:10.530Z,81.60
2018-02-19T13:25:38.934Z,84.30
2018-02-19T13:28:06.551Z,84.30
2018-02-19T13:30:34.196Z,83.60
2018-02-19T13:33:01.875Z,83.80
2018-02-19T13:35:30.334Z,85.40
2018-02-19T13:37:58.734Z,84.30
2018-02-19T13:40:26.446Z,84.30
2018-02-19T13:42:54.888Z,83.30
2018-02-19T13:45:22.546Z,84.40
2018-02-19T13:47:50.953Z,86.70
2018-02-19T13:50:19.407Z,85.50
2018-02-19T13:52:47.042Z,85.50
2018-02-19T13:55:14.943Z,85.40
2018-02-19T13:57:42.547Z,84.90
2018-02-19T14:00:10.238Z,84.40
2018-02-19T14:02:37.887Z,86.20
2018-02-19T14:05:05.534Z,87.90
2018-02-19T14:07:33.163Z,86.50
2018-02-19T14:10:01.642Z,86.20
2018-02-19T14:12:30.089Z,84.50
2018-02-19T14:14:57.869Z,84.50
2018-02-19T14:17:25.776Z,85.90
2018-02-19T14:19:53.488Z,84.90
2018-02-19T14:22:21.889Z,83.20
2018-02-19T14:24:49.678Z,83.10
2018-02-19T14:27:17.468Z,83.70
2018-02-19T14:29:45.239Z,84.20
2018-02-19T14:32:13.020Z,84.30
2018-02-19T14:34:40.778Z,86.20
2018-02-19T14:37:09.034Z,85.60
2018-02-19T14:39:36.681Z,84.50
2018-02-19T14:42:04.366Z,85.00
2018-02-19T14:44:35.582Z,87.30
2018-02-19T14:47:03.227Z,87.40
2018-02-19T14:49:31.599Z,87.60
2018-02-19T14:51:59.261Z,88.20
2018-02-19T14:54:27.224Z,86.50
2018-02-19T14:56:57.994Z,85.90
2018-02-19T14:59:27.546Z,88.00
2018-02-19T15:01:55.190Z,87.80
2018-02-19T15:04:22.814Z,87.20
2018-02-19T15:06:50.458Z,86.00
2018-02-19T15:09:18.956Z,87.50
2018-02-19T15:11:46.554Z,87.40
2018-02-19T15:14:14.153Z,87.90
2018-02-19T15:16:41.814Z,86.90
2018-02-19T15:19:09.452Z,87.00
2018-02-19T15:21:37.862Z,89.40
2018-02-19T15:24:05.487Z,89.20
2018-02-19T15:26:33.126Z,87.50
2018-02-19T15:29:00.815Z,86.20
2018-02-19T15:31:28.471Z,87.00
2018-02-19T15:33:56.103Z,86.50
2018-02-19T15:36:24.506Z,87.90
2018-02-19T15:38:52.927Z,86.80
2018-02-19T15:41:20.602Z,86.70
2018-02-19T15:43:48.644Z,87.60
2018-02-19T15:46:17.065Z,90.40
2018-02-19T15:48:45.682Z,89.50
2018-02-19T15:51:13.454Z,89.50
2018-02-19T15:53:41.231Z,89.10
2018-02-19T15:56:10.618Z,88.70
2018-02-19T15:58:38.279Z,90.10
2018-02-19T16:01:06.706Z,90.20
2018-02-19T16:03:35.190Z,90.20
2018-02-19T16:06:02.858Z,90.10
2018-02-19T16:08:35.102Z,89.30
2018-02-19T16:11:14.980Z,90.80
2018-02-19T16:13:42.669Z,90.70
2018-02-19T16:16:11.088Z,90.00
2018-02-19T16:18:38.764Z,90.00
2018-02-19T16:21:06.398Z,90.30
2018-02-19T16:23:34.816Z,90.40
2018-02-19T16:26:02.476Z,90.40
2018-02-19T16:28:30.187Z,90.60
2018-02-19T16:30:57.849Z,90.50
2018-02-19T16:33:25.631Z,90.20
2018-02-19T16:35:53.455Z,90.00
2018-02-19T16:38:21.154Z,90.40
2018-02-19T16:40:49.542Z,90.50
2018-02-19T16:43:17.969Z,90.50
2018-02-19T16:45:45.627Z,90.50
2018-02-19T16:48:13.259Z,90.60
2018-02-19T16:50:41.826Z,91.10
2018-02-19T16:53:09.522Z,90.80
2018-02-19T16:55:37.260Z,90.60
2018-02-19T16:58:04.910Z,90.80
2018-02-19T17:00:32.546Z,90.80
2018-02-19T17:03:00.693Z,90.80
2018-02-19T17:05:28.377Z,90.80
2018-02-19T17:07:56.117Z,91.20
2018-02-19T17:10:23.738Z,91.30
2018-02-19T17:12:51.422Z,91.20
2018-02-19T17:15:19.213Z,91.20
2018-02-19T17:17:47.664Z,91.70
2018-02-19T17:20:15.306Z,91.70
2018-02-19T17:22:42.925Z,91.70
2018-02-19T17:25:10.570Z,92.00
2018-02-19T17:27:39.742Z,91.20
2018-02-19T17:30:07.425Z,91.20
2018-02-19T17:32:35.833Z,91.20
2018-02-19T17:35:06.040Z,91.20
2018-02-19T17:37:33.659Z,91.50
2018-02-19T17:40:01.375Z,91.80
2018-02-19T17:42:29.032Z,92.00
2018-02-19T17:44:56.678Z,92.00
2018-02-19T17:47:24.350Z,91.60
2018-02-19T17:49:52.036Z,91.10
2018-02-19T17:52:19.670Z,91.50
2018-02-19T17:54:48.150Z,92.20
2018-02-19T17:57:15.994Z,92.20
2018-02-19T17:59:43.633Z,92.60
2018-02-19T18:02:11.362Z,92.20
2018-02-19T18:04:39.746Z,91.70
2018-02-19T18:07:07.349Z,91.70
2018-02-19T18:09:35.723Z,92.30
2018-02-19T18:12:03.359Z,92.20
2018-02-19T18:14:30.965Z,92.50
2018-02-19T18:16:58.667Z,92.50
2018-02-19T18:19:27.122Z,92.40
2018-02-19T18:21:54.754Z,92.40
2018-02-19T18:24:22.396Z,92.60
2018-02-19T18:26:50.822Z,93.40
2018-02-19T18:29:18.532Z,93.20
2018-02-19T18:31:47.121Z,93.60
2018-02-19T18:34:14.836Z,93.60
2018-02-19T18:36:43.274Z,93.60
2018-02-19T18:39:10.886Z,93.60
2018-02-19T18:41:38.499Z,93.70
2018-02-19T18:44:06.083Z,93.80
2018-02-19T18:46:34.286Z,93.60
2018-02-19T18:49:01.989Z,93.80
2018-02-19T18:51:29.739Z,94.00
2018-02-19T18:53:57.433Z,94.20
2018-02-19T18:56:25.086Z,94.40
2018-02-19T18:58:52.741Z,94.50
2018-02-19T19:01:20.419Z,94.40
2018-02-19T19:03:48.073Z,94.60
2018-02-19T19:06:16.453Z,94.90
2018-02-19T19:08:56.827Z,95.00
2018-02-19T19:11:25.247Z,95.10
2018-02-19T19:13:52.914Z,95.00
2018-02-19T19:16:20.564Z,95.00
2018-02-19T19:18:48.970Z,95.10
2018-02-19T19:21:17.396Z,95.00
2018-02-19T19:23:45.040Z,95.00
2018-02-19T19:26:12.650Z,95.30
2018-02-19T19:28:41.261Z,95.40
2018-02-19T19:31:09.149Z,95.60
2018-02-19T19:33:37.542Z,95.90
2018-02-19T19:36:05.163Z,95.90
2018-02-19T19:38:32.846Z,96.10
2018-02-19T19:41:00.574Z,96.10
2018-02-19T19:43:28.252Z,96.40
2018-02-19T19:45:55.857Z,96.40
2018-02-19T19:48:23.531Z,96.20
2018-02-19T19:50:51.253Z,96.50
2018-02-19T19:53:19.406Z,96.70
2018-02-19T19:55:47.143Z,97.00
2018-02-19T19:58:15.538Z,97.10
2018-02-19T20:00:44.001Z,97.30
2018-02-19T20:03:11.634Z,97.30
2018-02-19T20:05:39.302Z,97.40
2018-02-19T20:08:06.982Z,97.60
2018-02-19T20:10:34.647Z,97.40
2018-02-19T20:13:02.261Z,97.20
2018-02-19T20:15:30.030Z,97.40
2018-02-19T20:17:58.457Z,97.80
2018-02-19T20:20:26.120Z,97.80
2018-02-19T20:22:53.767Z,98.10
2018-02-19T20:25:21.420Z,97.70
2018-02-19T20:27:49.035Z,97.60
2018-02-19T20:30:16.701Z,97.70
2018-02-19T20:32:44.362Z,97.50
2018-02-19T20:35:12.021Z,97.30
2018-02-19T20:37:39.653Z,97.50
2018-02-19T20:40:08.078Z,97.50
2018-02-19T20:42:35.762Z,97.50
2018-02-19T20:45:03.425Z,97.70
2018-02-19T20:47:31.101Z,97.80
2018-02-19T20:49:58.766Z,97.80
2018-02-19T20:52:26.418Z,97.20
2018-02-19T20:54:54.797Z,97.30
2018-02-19T20:57:22.435Z,97.30
2018-02-19T20:59:50.062Z,97.60
2018-02-19T21:02:18.473Z,97.50
2018-02-19T21:04:46.135Z,97.50
2018-02-19T21:07:14.731Z,97.70
2018-02-19T21:09:43.120Z,97.90
2018-02-19T21:12:11.555Z,97.90
2018-02-19T21:14:39.326Z,97.90
2018-02-19T21:17:07.104Z,97.90
2018-02-19T21:19:36.053Z,97.80
2018-02-19T21:22:04.461Z,98.00
2018-02-19T21:24:32.888Z,97.50
2018-02-19T21:27:00.518Z,97.50
2018-02-19T21:29:28.956Z,97.20
2018-02-19T21:31:56.610Z,97.20
2018-02-19T21:34:24.220Z,97.30
2018-02-19T21:36:51.893Z,97.40
2018-02-19T21:39:19.543Z,97.30
2018-02-19T21:41:47.341Z,97.40
2018-02-19T21:44:15.104Z,97.40
2018-02-19T21:46:42.888Z,97.20
2018-02-19T21:49:10.596Z,97.20
2018-02-19T21:51:38.264Z,97.10
2018-02-19T21:54:05.857Z,97.00
2018-02-19T21:56:34.411Z,97.20
2018-02-19T21:59:02.047Z,97.20
2018-02-19T22:01:29.727Z,97.20
2018-02-19T22:03:57.333Z,97.20
2018-02-19T22:06:24.998Z,97.40
2018-02-19T22:08:52.618Z,97.20
2018-02-19T22:11:20.338Z,97.20
2018-02-19T22:13:47.954Z,97.20
2018-02-19T22:16:15.582Z,97.10
2018-02-19T22:18:43.182Z,97.30
2018-02-19T22:21:10.814Z,97.30
2018-02-19T22:23:38.458Z,97.30
2018-02-19T22:26:06.886Z,97.00
2018-02-19T22:28:34.492Z,97.00
2018-02-19T22:31:02.186Z,96.80
2018-02-19T22:33:29.859Z,96.70
2018-02-19T22:35:57.530Z,97.00
2018-02-19T22:38:25.160Z,97.40
2018-02-19T22:40:52.806Z,97.30
2018-02-19T22:43:21.213Z,96.90
2018-02-19T22:45:48.890Z,96.90
2018-02-19T22:48:16.538Z,96.90
2018-02-19T22:50:44.961Z,97.10
2018-02-19T22:53:12.590Z,97.10
2018-02-19T22:55:40.243Z,97.20
2018-02-19T22:58:07.936Z,97.30
2018-02-19T23:00:35.586Z,97.20
2018-02-19T23:03:03.347Z,97.60
2018-02-19T23:05:30.989Z,97.60
2018-02-19T23:07:59.385Z,97.10
2018-02-19T23:10:27.798Z,97.00
2018-02-19T23:12:55.462Z,97.00
2018-02-19T23:15:23.104Z,97.00
2018-02-19T23:17:50.713Z,97.20
2018-02-19T23:20:18.330Z,97.20
2018-02-19T23:22:45.967Z,97.30
2018-02-19T23:25:13.614Z,97.30
2018-02-19T23:27:42.018Z,96.90
2018-02-19T23:30:09.642Z,96.90
2018-02-19T23:32:37.269Z,96.90
2018-02-19T23:35:04.887Z,96.70
2018-02-19T23:37:32.518Z,96.80
2018-02-19T23:40:00.157Z,96.90
2018-02-19T23:42:28.569Z,97.00
2018-02-19T23:44:56.191Z,96.90
2018-02-19T23:47:23.810Z,97.10
2018-02-19T23:49:51.434Z,97.00
2018-02-19T23:52:19.067Z,96.80
2018-02-19T23:54:46.654Z,96.90
2018-02-19T23:57:14.291Z,97.10
2018-02-19T23:59:42.717Z,97.10
